sensor_id;sensor_type;location;lat;lon;timestamp;pressure;altitude;pressure_sealevel;temperature;humidity
70314;BME280;71040;47.526;18.986;2023-08-07T00:04:59;98923.09;;;21.00;96.21
70314;BME280;71040;47.526;18.986;2023-08-07T00:10:02;98914.59;;;20.96;96.17
70314;BME280;71040;47.526;18.986;2023-08-07T00:15:06;98903.13;;;20.95;96.22
70314;BME280;71040;47.526;18.986;2023-08-07T00:20:12;98904.94;;;20.95;96.23
70314;BME280;71040;47.526;18.986;2023-08-07T00:25:15;98915.88;;;20.92;96.43
70314;BME280;71040;47.526;18.986;2023-08-07T00:30:15;98913.22;;;20.92;96.52
70314;BME280;71040;47.526;18.986;2023-08-07T00:35:15;98920.34;;;20.91;96.13
70314;BME280;71040;47.526;18.986;2023-08-07T00:40:20;98922.19;;;20.91;96.50
70314;BME280;71040;47.526;18.986;2023-08-07T00:45:21;98920.50;;;20.90;96.45
70314;BME280;71040;47.526;18.986;2023-08-07T00:50:24;98912.53;;;20.90;96.32
70314;BME280;71040;47.526;18.986;2023-08-07T00:55:25;98905.72;;;20.87;96.50
70314;BME280;71040;47.526;18.986;2023-08-07T01:00:27;98916.38;;;20.87;96.44
70314;BME280;71040;47.526;18.986;2023-08-07T01:05:28;98917.50;;;20.85;96.13
70314;BME280;71040;47.526;18.986;2023-08-07T01:11:24;98926.31;;;20.85;96.22
70314;BME280;71040;47.526;18.986;2023-08-07T01:16:19;98922.13;;;20.83;96.42
70314;BME280;71040;47.526;18.986;2023-08-07T01:21:21;98903.69;;;20.81;96.27
70314;BME280;71040;47.526;18.986;2023-08-07T01:26:22;98917.94;;;20.80;96.20
70314;BME280;71040;47.526;18.986;2023-08-07T01:31:24;98921.72;;;20.78;96.40
70314;BME280;71040;47.526;18.986;2023-08-07T01:36:28;98934.03;;;20.79;96.36
70314;BME280;71040;47.526;18.986;2023-08-07T01:41:30;98946.47;;;20.78;96.46
70314;BME280;71040;47.526;18.986;2023-08-07T01:46:33;98944.81;;;20.77;96.57
70314;BME280;71040;47.526;18.986;2023-08-07T01:51:36;98934.34;;;20.76;96.18
70314;BME280;71040;47.526;18.986;2023-08-07T01:56:36;98944.28;;;20.74;96.40
70314;BME280;71040;47.526;18.986;2023-08-07T02:01:39;98949.75;;;20.72;96.19
70314;BME280;71040;47.526;18.986;2023-08-07T02:06:42;98948.91;;;20.72;96.12
70314;BME280;71040;47.526;18.986;2023-08-07T02:11:43;98941.94;;;20.71;96.22
70314;BME280;71040;47.526;18.986;2023-08-07T02:16:44;98945.56;;;20.70;96.48
70314;BME280;71040;47.526;18.986;2023-08-07T02:21:44;98937.59;;;20.70;96.25
70314;BME280;71040;47.526;18.986;2023-08-07T02:26:45;98938.59;;;20.69;96.33
70314;BME280;71040;47.526;18.986;2023-08-07T02:31:45;98942.38;;;20.66;96.26
70314;BME280;71040;47.526;18.986;2023-08-07T02:36:48;98947.03;;;20.64;96.56
70314;BME280;71040;47.526;18.986;2023-08-07T02:41:51;98945.22;;;20.65;96.58
70314;BME280;71040;47.526;18.986;2023-08-07T02:46:54;98948.69;;;20.65;96.42
70314;BME280;71040;47.526;18.986;2023-08-07T02:52:01;98936.56;;;20.63;96.17
70314;BME280;71040;47.526;18.986;2023-08-07T02:57:11;98960.59;;;20.61;96.35
70314;BME280;71040;47.526;18.986;2023-08-07T03:02:18;98961.59;;;20.60;96.42
70314;BME280;71040;47.526;18.986;2023-08-07T03:07:18;98976.81;;;20.58;96.07
70314;BME280;71040;47.526;18.986;2023-08-07T03:12:18;98975.00;;;20.58;96.06
70314;BME280;71040;47.526;18.986;2023-08-07T03:17:21;98981.31;;;20.57;96.33
70314;BME280;71040;47.526;18.986;2023-08-07T03:22:27;98981.44;;;20.56;96.44
70314;BME280;71040;47.526;18.986;2023-08-07T03:27:27;98990.25;;;20.56;96.36
70314;BME280;71040;47.526;18.986;2023-08-07T03:32:28;98993.75;;;20.57;96.42
70314;BME280;71040;47.526;18.986;2023-08-07T03:37:28;98991.38;;;20.54;96.37
70314;BME280;71040;47.526;18.986;2023-08-07T03:42:29;98977.44;;;20.52;96.27
70314;BME280;71040;47.526;18.986;2023-08-07T03:47:34;99008.31;;;20.53;96.07
70314;BME280;71040;47.526;18.986;2023-08-07T03:52:46;99008.47;;;20.51;96.04
70314;BME280;71040;47.526;18.986;2023-08-07T03:57:46;99018.25;;;20.51;96.40
70314;BME280;71040;47.526;18.986;2023-08-07T04:02:47;99016.56;;;20.50;96.43
70314;BME280;71040;47.526;18.986;2023-08-07T04:07:47;99017.69;;;20.47;96.00
70314;BME280;71040;47.526;18.986;2023-08-07T04:12:47;99008.06;;;20.46;96.34
70314;BME280;71040;47.526;18.986;2023-08-07T04:17:48;99015.19;;;20.46;96.33
70314;BME280;71040;47.526;18.986;2023-08-07T04:22:48;99013.66;;;20.43;96.25
70314;BME280;71040;47.526;18.986;2023-08-07T04:27:51;99013.84;;;20.42;96.42
70314;BME280;71040;47.526;18.986;2023-08-07T04:32:51;99008.66;;;20.40;96.41
70314;BME280;71040;47.526;18.986;2023-08-07T04:37:55;99001.53;;;20.41;96.01
70314;BME280;71040;47.526;18.986;2023-08-07T04:42:56;99006.16;;;20.39;96.20
70314;BME280;71040;47.526;18.986;2023-08-07T04:47:56;99005.47;;;20.37;95.94
70314;BME280;71040;47.526;18.986;2023-08-07T04:53:01;99011.63;;;20.37;96.39
70314;BME280;71040;47.526;18.986;2023-08-07T04:58:01;99006.56;;;20.34;96.35
70314;BME280;71040;47.526;18.986;2023-08-07T05:03:04;99003.22;;;20.32;96.22
70314;BME280;71040;47.526;18.986;2023-08-07T05:08:07;99000.72;;;20.31;96.17
70314;BME280;71040;47.526;18.986;2023-08-07T05:13:07;99005.22;;;20.30;96.10
70314;BME280;71040;47.526;18.986;2023-08-07T05:18:08;98998.38;;;20.28;96.00
70314;BME280;71040;47.526;18.986;2023-08-07T05:23:11;99001.03;;;20.28;96.15
70314;BME280;71040;47.526;18.986;2023-08-07T05:28:11;99021.41;;;20.27;96.32
70314;BME280;71040;47.526;18.986;2023-08-07T05:33:14;99017.09;;;20.26;96.46
70314;BME280;71040;47.526;18.986;2023-08-07T05:38:15;99033.16;;;20.24;96.54
70314;BME280;71040;47.526;18.986;2023-08-07T05:43:16;99047.41;;;20.23;96.40
70314;BME280;71040;47.526;18.986;2023-08-07T05:48:19;99047.41;;;20.23;96.27
70314;BME280;71040;47.526;18.986;2023-08-07T05:53:20;99058.31;;;20.20;96.47
70314;BME280;71040;47.526;18.986;2023-08-07T05:58:20;99057.47;;;20.20;96.49
70314;BME280;71040;47.526;18.986;2023-08-07T06:03:23;99083.16;;;20.19;96.63
70314;BME280;71040;47.526;18.986;2023-08-07T06:08:24;99090.31;;;20.19;96.21
70314;BME280;71040;47.526;18.986;2023-08-07T06:13:26;99102.59;;;20.20;96.45
70314;BME280;71040;47.526;18.986;2023-08-07T06:18:27;99105.56;;;20.17;96.62
70314;BME280;71040;47.526;18.986;2023-08-07T06:23:33;99116.16;;;20.17;96.60
70314;BME280;71040;47.526;18.986;2023-08-07T06:28:34;99115.31;;;20.16;96.46
70314;BME280;71040;47.526;18.986;2023-08-07T06:33:36;99121.63;;;20.15;96.66
70314;BME280;71040;47.526;18.986;2023-08-07T06:38:37;99120.63;;;20.16;96.66
70314;BME280;71040;47.526;18.986;2023-08-07T06:43:37;99117.16;;;20.16;96.47
70314;BME280;71040;47.526;18.986;2023-08-07T06:48:38;99117.44;;;20.13;96.89
70314;BME280;71040;47.526;18.986;2023-08-07T06:53:38;99124.41;;;20.14;96.65
70314;BME280;71040;47.526;18.986;2023-08-07T06:58:39;99140.31;;;20.14;96.39
70314;BME280;71040;47.526;18.986;2023-08-07T07:03:39;99135.03;;;20.14;96.51
70314;BME280;71040;47.526;18.986;2023-08-07T07:08:39;99136.00;;;20.13;96.64
70314;BME280;71040;47.526;18.986;2023-08-07T07:13:42;99135.16;;;20.12;96.63
70314;BME280;71040;47.526;18.986;2023-08-07T07:18:45;99138.66;;;20.13;96.71
70314;BME280;71040;47.526;18.986;2023-08-07T07:23:45;99135.16;;;20.12;96.46
70314;BME280;71040;47.526;18.986;2023-08-07T07:28:46;99137.81;;;20.12;96.69
70314;BME280;71040;47.526;18.986;2023-08-07T07:33:51;99145.06;;;20.10;96.39
70314;BME280;71040;47.526;18.986;2023-08-07T07:38:54;99137.94;;;20.11;96.97
70314;BME280;71040;47.526;18.986;2023-08-07T07:43:56;99152.06;;;20.11;96.74
70314;BME280;71040;47.526;18.986;2023-08-07T07:49:01;99144.09;;;20.11;97.04
70314;BME280;71040;47.526;18.986;2023-08-07T07:54:05;99155.56;;;20.12;96.71
70314;BME280;71040;47.526;18.986;2023-08-07T07:59:07;99165.31;;;20.11;96.73
70314;BME280;71040;47.526;18.986;2023-08-07T08:04:08;99175.94;;;20.11;97.05
70314;BME280;71040;47.526;18.986;2023-08-07T08:09:10;99180.28;;;20.12;96.82
70314;BME280;71040;47.526;18.986;2023-08-07T08:14:10;99184.75;;;20.12;96.94
70314;BME280;71040;47.526;18.986;2023-08-07T08:19:13;99195.34;;;20.12;97.09
70314;BME280;71040;47.526;18.986;2023-08-07T08:24:19;99202.34;;;20.13;96.88
70314;BME280;71040;47.526;18.986;2023-08-07T08:29:20;99213.78;;;20.13;96.87
70314;BME280;71040;47.526;18.986;2023-08-07T08:34:21;99219.22;;;20.12;96.77
70314;BME280;71040;47.526;18.986;2023-08-07T08:39:21;99225.25;;;20.14;96.80
70314;BME280;71040;47.526;18.986;2023-08-07T08:44:24;99228.72;;;20.14;97.12
70314;BME280;71040;47.526;18.986;2023-08-07T08:49:33;99241.03;;;20.15;96.90
70314;BME280;71040;47.526;18.986;2023-08-07T08:54:37;99253.31;;;20.16;96.86
70314;BME280;71040;47.526;18.986;2023-08-07T08:59:42;99249.81;;;20.16;96.74
70314;BME280;71040;47.526;18.986;2023-08-07T09:04:51;99246.06;;;20.18;96.87
70314;BME280;71040;47.526;18.986;2023-08-07T09:09:57;99256.69;;;20.18;97.03
70314;BME280;71040;47.526;18.986;2023-08-07T09:15:02;99249.56;;;20.19;97.06
70314;BME280;71040;47.526;18.986;2023-08-07T09:20:05;99268.94;;;20.19;96.96
70314;BME280;71040;47.526;18.986;2023-08-07T09:25:11;99256.38;;;20.21;97.24
70314;BME280;71040;47.526;18.986;2023-08-07T09:30:14;99254.56;;;20.22;97.26
70314;BME280;71040;47.526;18.986;2023-08-07T09:35:20;99259.72;;;20.23;97.48
70314;BME280;71040;47.526;18.986;2023-08-07T09:40:24;99278.31;;;20.23;97.54
70314;BME280;71040;47.526;18.986;2023-08-07T09:45:27;99286.97;;;20.25;97.50
70314;BME280;71040;47.526;18.986;2023-08-07T09:50:31;99294.94;;;20.25;97.61
70314;BME280;71040;47.526;18.986;2023-08-07T09:55:35;99288.66;;;20.27;97.32
70314;BME280;71040;47.526;18.986;2023-08-07T10:00:35;99298.28;;;20.28;97.46
70314;BME280;71040;47.526;18.986;2023-08-07T10:05:38;99303.47;;;20.29;97.58
70314;BME280;71040;47.526;18.986;2023-08-07T10:10:41;99307.09;;;20.28;97.35
70314;BME280;71040;47.526;18.986;2023-08-07T10:15:42;99303.16;;;20.32;97.70
70314;BME280;71040;47.526;18.986;2023-08-07T10:20:46;99301.34;;;20.33;97.54
70314;BME280;71040;47.526;18.986;2023-08-07T10:25:48;99318.94;;;20.34;97.30
70314;BME280;71040;47.526;18.986;2023-08-07T10:30:58;99305.66;;;20.34;97.38
70314;BME280;71040;47.526;18.986;2023-08-07T10:36:08;99314.38;;;20.36;97.48
70314;BME280;71040;47.526;18.986;2023-08-07T10:41:12;99313.38;;;20.37;97.72
70314;BME280;71040;47.526;18.986;2023-08-07T10:46:14;99314.09;;;20.39;97.62
70314;BME280;71040;47.526;18.986;2023-08-07T10:51:18;99321.91;;;20.40;97.61
70314;BME280;71040;47.526;18.986;2023-08-07T11:06:34;99346.50;;;20.42;97.83
70314;BME280;71040;47.526;18.986;2023-08-07T11:11:48;99332.81;;;20.47;98.13
70314;BME280;71040;47.526;18.986;2023-08-07T11:16:52;99316.03;;;20.46;97.89
70314;BME280;71040;47.526;18.986;2023-08-07T11:21:53;99339.66;;;20.49;97.92
70314;BME280;71040;47.526;18.986;2023-08-07T11:26:55;99336.88;;;20.51;98.23
70314;BME280;71040;47.526;18.986;2023-08-07T11:31:56;99339.38;;;20.52;97.86
70314;BME280;71040;47.526;18.986;2023-08-07T11:36:57;99354.16;;;20.55;97.76
70314;BME280;71040;47.526;18.986;2023-08-07T11:41:59;99350.53;;;20.56;97.83
70314;BME280;71040;47.526;18.986;2023-08-07T11:47:00;99352.22;;;20.57;97.76
70314;BME280;71040;47.526;18.986;2023-08-07T11:52:02;99361.84;;;20.58;98.15
70314;BME280;71040;47.526;18.986;2023-08-07T11:57:03;99351.09;;;20.59;98.20
70314;BME280;71040;47.526;18.986;2023-08-07T12:02:14;99357.13;;;20.62;98.06
70314;BME280;71040;47.526;18.986;2023-08-07T12:07:17;99357.94;;;20.62;98.06
70314;BME280;71040;47.526;18.986;2023-08-07T12:12:19;99361.31;;;20.64;97.98
70314;BME280;71040;47.526;18.986;2023-08-07T12:17:22;99356.84;;;20.65;97.80
70314;BME280;71040;47.526;18.986;2023-08-07T12:22:22;99365.47;;;20.67;98.16
70314;BME280;71040;47.526;18.986;2023-08-07T12:27:23;99368.97;;;20.67;97.82
70314;BME280;71040;47.526;18.986;2023-08-07T12:32:23;99375.97;;;20.68;98.07
70314;BME280;71040;47.526;18.986;2023-08-07T12:37:24;99378.34;;;20.71;97.83
70314;BME280;71040;47.526;18.986;2023-08-07T12:42:24;99384.63;;;20.70;97.84
70314;BME280;71040;47.526;18.986;2023-08-07T12:47:24;99378.22;;;20.73;97.90
70314;BME280;71040;47.526;18.986;2023-08-07T12:52:25;99395.69;;;20.75;97.56
70314;BME280;71040;47.526;18.986;2023-08-07T12:57:32;99396.66;;;20.74;97.70
70314;BME280;71040;47.526;18.986;2023-08-07T13:02:34;99395.53;;;20.77;97.43
70314;BME280;71040;47.526;18.986;2023-08-07T13:07:35;99398.88;;;20.79;97.60
70314;BME280;71040;47.526;18.986;2023-08-07T13:12:39;99404.19;;;20.79;97.46
70314;BME280;71040;47.526;18.986;2023-08-07T13:17:40;99410.19;;;20.81;97.16
70314;BME280;71040;47.526;18.986;2023-08-07T13:22:42;99407.41;;;20.82;97.30
70314;BME280;71040;47.526;18.986;2023-08-07T13:27:45;99414.41;;;20.83;97.24
70314;BME280;71040;47.526;18.986;2023-08-07T13:32:45;99417.91;;;20.84;97.21
70314;BME280;71040;47.526;18.986;2023-08-07T13:37:51;99426.72;;;20.84;96.94
70314;BME280;71040;47.526;18.986;2023-08-07T13:42:51;99423.06;;;20.85;97.26
70314;BME280;71040;47.526;18.986;2023-08-07T13:47:54;99436.34;;;20.85;97.23
70314;BME280;71040;47.526;18.986;2023-08-07T13:52:59;99444.03;;;20.88;97.18
70314;BME280;71040;47.526;18.986;2023-08-07T13:58:01;99441.38;;;20.88;97.12
70314;BME280;71040;47.526;18.986;2023-08-07T14:03:05;99446.69;;;20.88;97.14
70314;BME280;71040;47.526;18.986;2023-08-07T14:08:09;99452.84;;;20.89;97.11
70314;BME280;71040;47.526;18.986;2023-08-07T14:13:10;99460.81;;;20.89;97.25
70314;BME280;71040;47.526;18.986;2023-08-07T14:18:11;99472.13;;;20.91;97.05
70314;BME280;71040;47.526;18.986;2023-08-07T14:23:14;99472.00;;;20.92;96.82
70314;BME280;71040;47.526;18.986;2023-08-07T14:28:15;99472.00;;;20.92;96.99
70314;BME280;71040;47.526;18.986;2023-08-07T14:33:15;99472.84;;;20.93;96.90
70314;BME280;71040;47.526;18.986;2023-08-07T14:38:17;99471.84;;;20.94;96.64
70314;BME280;71040;47.526;18.986;2023-08-07T14:43:19;99471.03;;;20.93;97.10
70314;BME280;71040;47.526;18.986;2023-08-07T14:48:20;99469.19;;;20.94;96.69
70314;BME280;71040;47.526;18.986;2023-08-07T14:53:21;99461.09;;;20.95;97.04
70314;BME280;71040;47.526;18.986;2023-08-07T14:58:21;99477.03;;;20.95;96.74
70314;BME280;71040;47.526;18.986;2023-08-07T15:03:22;99476.06;;;20.96;96.92
70314;BME280;71040;47.526;18.986;2023-08-07T15:08:25;99480.53;;;20.96;96.53
70314;BME280;71040;47.526;18.986;2023-08-07T15:13:25;99480.41;;;20.98;96.59
70314;BME280;71040;47.526;18.986;2023-08-07T15:18:28;99474.25;;;20.97;96.61
70314;BME280;71040;47.526;18.986;2023-08-07T15:23:29;99479.56;;;20.97;96.85
70314;BME280;71040;47.526;18.986;2023-08-07T15:28:32;99475.94;;;20.98;96.50
70314;BME280;71040;47.526;18.986;2023-08-07T15:33:32;99472.44;;;20.98;96.80
70314;BME280;71040;47.526;18.986;2023-08-07T15:38:32;99468.09;;;20.96;96.75
70314;BME280;71040;47.526;18.986;2023-08-07T15:43:38;99475.09;;;20.98;96.69
70314;BME280;71040;47.526;18.986;2023-08-07T15:48:38;99478.59;;;20.98;96.60
70314;BME280;71040;47.526;18.986;2023-08-07T15:53:41;99474.94;;;20.99;96.67
70314;BME280;71040;47.526;18.986;2023-08-07T15:58:41;99476.75;;;20.99;96.59
70314;BME280;71040;47.526;18.986;2023-08-07T16:03:42;99478.59;;;20.98;96.61
70314;BME280;71040;47.526;18.986;2023-08-07T16:08:44;99469.63;;;20.99;96.65
70314;BME280;71040;47.526;18.986;2023-08-07T16:13:47;99476.75;;;20.99;96.46
70314;BME280;71040;47.526;18.986;2023-08-07T16:18:49;99467.94;;;20.98;96.29
70314;BME280;71040;47.526;18.986;2023-08-07T16:23:51;99473.41;;;20.96;96.51
70314;BME280;71040;47.526;18.986;2023-08-07T16:28:52;99466.28;;;20.97;96.55
70314;BME280;71040;47.526;18.986;2023-08-07T16:33:54;99461.78;;;20.98;96.56
70314;BME280;71040;47.526;18.986;2023-08-07T16:38:57;99456.63;;;20.96;96.40
70314;BME280;71040;47.526;18.986;2023-08-07T16:44:00;99458.44;;;20.95;96.48
70314;BME280;71040;47.526;18.986;2023-08-07T16:49:00;99469.91;;;20.96;96.63
70314;BME280;71040;47.526;18.986;2023-08-07T16:54:01;99468.22;;;20.95;96.23
70314;BME280;71040;47.526;18.986;2023-08-07T16:59:04;99465.44;;;20.96;96.37
70314;BME280;71040;47.526;18.986;2023-08-07T17:04:04;99472.56;;;20.96;96.31
70314;BME280;71040;47.526;18.986;2023-08-07T17:09:05;99478.84;;;20.95;96.67
70314;BME280;71040;47.526;18.986;2023-08-07T17:14:06;99493.97;;;20.94;96.46
70314;BME280;71040;47.526;18.986;2023-08-07T17:19:09;99488.78;;;20.93;96.63
70314;BME280;71040;47.526;18.986;2023-08-07T17:24:15;99501.09;;;20.94;96.29
70314;BME280;71040;47.526;18.986;2023-08-07T17:29:20;99496.75;;;20.93;96.61
70314;BME280;71040;47.526;18.986;2023-08-07T17:34:22;99502.06;;;20.93;96.11
70314;BME280;71040;47.526;18.986;2023-08-07T17:39:23;99506.53;;;20.92;96.48
70314;BME280;71040;47.526;18.986;2023-08-07T17:44:26;99507.50;;;20.91;96.26
70314;BME280;71040;47.526;18.986;2023-08-07T17:49:32;99511.00;;;20.92;96.15
70314;BME280;71040;47.526;18.986;2023-08-07T17:54:34;99510.16;;;20.91;96.20
70314;BME280;71040;47.526;18.986;2023-08-07T17:59:36;99518.28;;;20.90;96.23
70314;BME280;71040;47.526;18.986;2023-08-07T18:04:36;99537.84;;;20.89;95.93
70314;BME280;71040;47.526;18.986;2023-08-07T18:09:39;99548.78;;;20.76;92.27
70314;BME280;71040;47.526;18.986;2023-08-07T18:14:39;99553.09;;;20.77;93.06
70314;BME280;71040;47.526;18.986;2023-08-07T18:19:43;99558.13;;;20.80;93.89
70314;BME280;71040;47.526;18.986;2023-08-07T18:24:47;99562.47;;;20.81;93.88
70314;BME280;71040;47.526;18.986;2023-08-07T18:29:50;99566.09;;;20.80;94.13
70314;BME280;71040;47.526;18.986;2023-08-07T18:34:52;99570.44;;;20.81;94.12
70314;BME280;71040;47.526;18.986;2023-08-07T18:39:58;99584.69;;;20.80;94.33
70314;BME280;71040;47.526;18.986;2023-08-07T18:44:58;99601.47;;;20.81;94.49
70314;BME280;71040;47.526;18.986;2023-08-07T18:49:59;99600.63;;;20.80;94.33
70314;BME280;71040;47.526;18.986;2023-08-07T18:54:59;99605.94;;;20.80;94.12
70314;BME280;71040;47.526;18.986;2023-08-07T19:00:00;99606.91;;;20.79;94.47
70314;BME280;71040;47.526;18.986;2023-08-07T19:05:06;99618.38;;;20.80;94.47
70314;BME280;71040;47.526;18.986;2023-08-07T19:10:09;99622.84;;;20.79;94.23
70314;BME280;71040;47.526;18.986;2023-08-07T19:15:10;99630.97;;;20.78;94.49
70314;BME280;71040;47.526;18.986;2023-08-07T19:20:12;99630.13;;;20.77;94.40
70314;BME280;71040;47.526;18.986;2023-08-07T19:25:16;99630.13;;;20.77;94.43
70314;BME280;71040;47.526;18.986;2023-08-07T19:30:18;99638.09;;;20.77;94.39
70314;BME280;71040;47.526;18.986;2023-08-07T19:35:19;99639.94;;;20.77;94.58
70314;BME280;71040;47.526;18.986;2023-08-07T19:40:19;99625.94;;;20.75;94.77
70314;BME280;71040;47.526;18.986;2023-08-07T19:45:24;99639.22;;;20.75;94.74
70314;BME280;71040;47.526;18.986;2023-08-07T19:50:24;99635.72;;;20.74;94.39
70314;BME280;71040;47.526;18.986;2023-08-07T19:55:26;99638.53;;;20.73;94.73
70314;BME280;71040;47.526;18.986;2023-08-07T20:00:28;99644.66;;;20.73;94.71
70314;BME280;71040;47.526;18.986;2023-08-07T20:05:29;99640.34;;;20.72;94.55
70314;BME280;71040;47.526;18.986;2023-08-07T20:10:29;99634.31;;;20.70;94.44
70314;BME280;71040;47.526;18.986;2023-08-07T20:15:32;99637.81;;;20.71;94.74
70314;BME280;71040;47.526;18.986;2023-08-07T20:20:36;99636.13;;;20.70;94.80
70314;BME280;71040;47.526;18.986;2023-08-07T20:25:37;99639.75;;;20.69;94.73
70314;BME280;71040;47.526;18.986;2023-08-07T20:30:46;99639.75;;;20.69;94.66
70314;BME280;71040;47.526;18.986;2023-08-07T20:35:47;99631.06;;;20.67;94.72
70314;BME280;71040;47.526;18.986;2023-08-07T20:40:47;99637.34;;;20.66;94.79
70314;BME280;71040;47.526;18.986;2023-08-07T20:45:52;99636.53;;;20.65;94.58
70314;BME280;71040;47.526;18.986;2023-08-07T20:50:55;99656.94;;;20.65;94.57
70314;BME280;71040;47.526;18.986;2023-08-07T20:55:57;99646.47;;;20.63;94.58
70314;BME280;71040;47.526;18.986;2023-08-07T21:01:00;99663.38;;;20.62;94.44
70314;BME280;71040;47.526;18.986;2023-08-07T21:06:06;99657.09;;;20.63;94.38
70314;BME280;71040;47.526;18.986;2023-08-07T21:11:06;99660.84;;;20.60;94.50
70314;BME280;71040;47.526;18.986;2023-08-07T21:16:07;99667.13;;;20.59;94.58
70314;BME280;71040;47.526;18.986;2023-08-07T21:21:07;99655.78;;;20.57;94.23
70314;BME280;71040;47.526;18.986;2023-08-07T21:26:12;99662.78;;;20.58;94.19
70314;BME280;71040;47.526;18.986;2023-08-07T21:31:12;99657.59;;;20.57;94.44
70314;BME280;71040;47.526;18.986;2023-08-07T21:36:15;99655.91;;;20.56;94.03
70314;BME280;71040;47.526;18.986;2023-08-07T21:41:16;99660.53;;;20.54;94.46
70314;BME280;71040;47.526;18.986;2023-08-07T21:46:21;99653.56;;;20.53;94.06
70314;BME280;71040;47.526;18.986;2023-08-07T21:51:21;99657.19;;;20.52;94.22
70314;BME280;71040;47.526;18.986;2023-08-07T21:56:24;99659.00;;;20.51;94.40
70314;BME280;71040;47.526;18.986;2023-08-07T22:01:25;99659.97;;;20.50;94.07
70314;BME280;71040;47.526;18.986;2023-08-07T22:06:26;99661.91;;;20.48;94.20
70314;BME280;71040;47.526;18.986;2023-08-07T22:11:26;99658.41;;;20.48;94.20
70314;BME280;71040;47.526;18.986;2023-08-07T22:16:29;99662.03;;;20.47;94.21
70314;BME280;71040;47.526;18.986;2023-08-07T22:21:29;99668.31;;;20.46;93.78
70314;BME280;71040;47.526;18.986;2023-08-07T22:26:32;99668.31;;;20.46;94.17
70314;BME280;71040;47.526;18.986;2023-08-07T22:31:32;99663.13;;;20.44;94.03
70314;BME280;71040;47.526;18.986;2023-08-07T22:36:35;99673.03;;;20.42;93.83
70314;BME280;71040;47.526;18.986;2023-08-07T22:41:38;99684.66;;;20.41;93.94
70314;BME280;71040;47.526;18.986;2023-08-07T22:46:41;99687.31;;;20.41;93.86
70314;BME280;71040;47.526;18.986;2023-08-07T22:51:42;99676.00;;;20.39;93.72
70314;BME280;71040;47.526;18.986;2023-08-07T22:56:49;99691.06;;;20.39;93.78
70314;BME280;71040;47.526;18.986;2023-08-07T23:01:49;99692.88;;;20.38;93.74
70314;BME280;71040;47.526;18.986;2023-08-07T23:06:52;99702.78;;;20.36;93.98
70314;BME280;71040;47.526;18.986;2023-08-07T23:11:52;99711.72;;;20.35;93.74
70314;BME280;71040;47.526;18.986;2023-08-07T23:16:55;99696.75;;;20.34;93.92
70314;BME280;71040;47.526;18.986;2023-08-07T23:22:00;99716.28;;;20.33;93.93
70314;BME280;71040;47.526;18.986;2023-08-07T23:27:01;99714.88;;;20.29;93.94
70314;BME280;71040;47.526;18.986;2023-08-07T23:32:04;99723.53;;;20.31;93.73
70314;BME280;71040;47.526;18.986;2023-08-07T23:37:05;99728.16;;;20.29;93.93
70314;BME280;71040;47.526;18.986;2023-08-07T23:42:08;99731.78;;;20.28;93.77
70314;BME280;71040;47.526;18.986;2023-08-07T23:47:08;99730.94;;;20.28;93.70
70314;BME280;71040;47.526;18.986;2023-08-07T23:52:09;99735.41;;;20.27;93.80
70314;BME280;71040;47.526;18.986;2023-08-07T23:57:09;99742.66;;;20.25;93.61
